Time;durP1;ratioP1;P1;durP2;ratioP2;P2;SDS_P1;SDS_P2;PMS_P1;PMS_P2;Temp;Humidity;BMP_temperature;BMP_pressure;BME280_temperature;BME280_humidity;BME280_pressure;Samples;Min_cycle;Max_cycle;Signal;HPM_P1;HPM_P2
2022/05/20 00:00:17;;;;;;;12.10;8.68;;;13.20;99.90;;;;;;5049621;28;20502;-82
2022/05/20 00:02:44;;;;;;;15.32;9.13;;;13.20;99.90;;;;;;5068517;28;20035;-82
2022/05/20 00:05:10;;;;;;;13.68;9.20;;;13.20;99.90;;;;;;5065978;28;20039;-82
2022/05/20 00:07:39;;;;;;;12.00;10.05;;;13.10;99.90;;;;;;5017621;28;20031;-82
2022/05/20 00:10:07;;;;;;;11.57;9.13;;;13.10;99.90;;;;;;5015746;28;20040;-82
2022/05/20 00:12:33;;;;;;;13.93;9.13;;;13.00;99.90;;;;;;5021409;28;20055;-82
2022/05/20 00:15:00;;;;;;;14.80;9.13;;;13.00;99.90;;;;;;5019633;28;20033;-82
2022/05/20 00:17:26;;;;;;;17.50;11.75;;;13.00;99.90;;;;;;5029854;28;20024;-82
2022/05/20 00:19:53;;;;;;;13.40;10.73;;;13.00;99.90;;;;;;5001866;28;20056;-82
2022/05/20 00:22:19;;;;;;;14.52;11.05;;;12.90;99.90;;;;;;5048751;28;20387;-82
2022/05/20 00:27:30;;;;;;;16.00;11.25;;;12.90;99.90;;;;;;5032505;28;20032;-80
2022/05/20 00:29:58;;;;;;;13.68;11.65;;;12.80;99.90;;;;;;5034408;28;20036;-80
2022/05/20 00:32:24;;;;;;;12.23;8.75;;;12.80;99.90;;;;;;5047562;28;20028;-80
2022/05/20 00:34:51;;;;;;;14.57;10.82;;;12.80;99.90;;;;;;5060736;28;20367;-80
2022/05/20 00:37:17;;;;;;;16.10;11.43;;;12.70;99.90;;;;;;5030578;28;20033;-80
2022/05/20 00:39:44;;;;;;;13.65;9.73;;;12.70;99.90;;;;;;5034432;28;20033;-80
2022/05/20 00:42:18;;;;;;;14.90;10.32;;;12.70;99.90;;;;;;5033956;28;20036;-81
2022/05/20 00:44:46;;;;;;;14.45;9.85;;;12.70;99.90;;;;;;5014817;28;20024;-81
2022/05/20 00:47:14;;;;;;;15.55;11.00;;;12.60;99.90;;;;;;5050859;28;20047;-81
2022/05/20 00:49:44;;;;;;;13.82;9.65;;;12.60;99.90;;;;;;5049585;28;20021;-80
2022/05/20 00:52:14;;;;;;;15.82;11.50;;;12.60;99.90;;;;;;5066567;28;20037;-81
2022/05/20 00:54:45;;;;;;;8.60;7.47;;;12.60;99.90;;;;;;5048677;28;20037;-81
2022/05/20 00:57:43;;;;;;;11.35;10.15;;;12.60;99.90;;;;;;5016113;28;20040;-81
2022/05/20 01:00:14;;;;;;;12.60;10.15;;;12.60;99.90;;;;;;5047827;28;20392;-81
2022/05/20 01:02:40;;;;;;;10.52;8.18;;;12.50;99.90;;;;;;5019607;28;20379;-81
2022/05/20 01:05:17;;;;;;;11.60;9.50;;;12.50;99.90;;;;;;5053092;28;20040;-81
2022/05/20 01:07:44;;;;;;;15.52;9.88;;;12.50;99.90;;;;;;5070323;28;20036;-81
2022/05/20 01:10:11;;;;;;;11.55;8.10;;;12.50;99.90;;;;;;5052374;28;20400;-81
2022/05/20 01:12:37;;;;;;;13.30;11.48;;;12.50;99.90;;;;;;5039336;28;20049;-82
2022/05/20 01:15:05;;;;;;;14.60;10.48;;;12.50;99.90;;;;;;5031689;28;20059;-82
2022/05/20 01:17:31;;;;;;;9.07;7.68;;;12.50;99.90;;;;;;5044817;28;20033;-81
2022/05/20 01:19:59;;;;;;;14.40;10.00;;;12.40;99.90;;;;;;5018348;28;20052;-81
2022/05/20 01:22:25;;;;;;;16.17;12.02;;;12.40;99.90;;;;;;5017747;28;20492;-81
2022/05/20 01:24:52;;;;;;;14.88;11.45;;;12.40;99.90;;;;;;5030147;28;20044;-81
2022/05/20 01:27:18;;;;;;;14.48;9.93;;;12.40;99.90;;;;;;5028837;28;20033;-81
2022/05/20 01:29:45;;;;;;;15.35;12.10;;;12.30;99.90;;;;;;5017394;28;20036;-81
2022/05/20 01:32:11;;;;;;;14.88;11.57;;;12.30;99.90;;;;;;5033409;28;20029;-81
2022/05/20 01:34:37;;;;;;;14.30;10.98;;;12.30;99.90;;;;;;5015115;28;20049;-80
2022/05/20 01:37:04;;;;;;;14.88;11.75;;;12.30;99.90;;;;;;5017461;28;20041;-80
2022/05/20 01:39:31;;;;;;;14.45;11.20;;;12.20;99.90;;;;;;5029902;28;20100;-81
2022/05/20 01:42:20;;;;;;;14.13;11.23;;;12.20;99.90;;;;;;4994168;28;20037;-80
2022/05/20 01:44:55;;;;;;;14.75;11.40;;;12.20;99.90;;;;;;5043203;28;20013;-82
2022/05/20 01:47:43;;;;;;;14.70;11.73;;;12.20;99.90;;;;;;5026418;28;20361;-81
2022/05/20 01:50:17;;;;;;;12.38;9.90;;;12.10;99.90;;;;;;5043008;28;20029;-81
2022/05/20 01:52:58;;;;;;;14.98;10.93;;;12.10;99.90;;;;;;5045020;28;20372;-81
2022/05/20 01:55:33;;;;;;;10.80;9.13;;;12.10;99.90;;;;;;5030633;28;20043;-81
2022/05/20 01:58:15;;;;;;;9.18;7.90;;;12.10;99.90;;;;;;5041396;28;20055;-81
2022/05/20 02:00:42;;;;;;;14.38;11.15;;;12.10;99.90;;;;;;5046516;28;20041;-81
2022/05/20 02:03:33;;;;;;;15.13;12.00;;;12.00;99.90;;;;;;5028948;28;20037;-81
2022/05/20 02:06:18;;;;;;;17.15;12.73;;;12.10;99.90;;;;;;5045370;28;20031;-83
2022/05/20 02:09:01;;;;;;;14.32;11.55;;;12.00;99.90;;;;;;5016776;28;20491;-82
2022/05/20 02:11:37;;;;;;;16.23;12.20;;;12.00;99.90;;;;;;5033259;28;20049;-80
2022/05/20 02:14:17;;;;;;;15.95;13.88;;;12.00;99.90;;;;;;5020744;28;20033;-82
2022/05/20 02:16:52;;;;;;;14.23;12.43;;;12.00;99.90;;;;;;5020918;28;20030;-81
2022/05/20 02:19:36;;;;;;;14.05;11.02;;;12.10;99.90;;;;;;5026198;28;20026;-81
2022/05/20 02:22:09;;;;;;;13.38;11.60;;;12.00;99.90;;;;;;5020836;28;20056;-82
2022/05/20 02:24:40;;;;;;;15.13;12.95;;;12.00;99.90;;;;;;5040495;28;20014;-81
2022/05/20 02:27:12;;;;;;;16.95;13.80;;;12.00;99.90;;;;;;5002571;28;20021;-81
2022/05/20 02:30:00;;;;;;;16.90;13.10;;;12.00;99.90;;;;;;5009873;28;20029;-81
2022/05/20 02:32:34;;;;;;;13.60;11.90;;;11.90;99.90;;;;;;5037238;28;20042;-81
2022/05/20 02:35:01;;;;;;;11.85;10.40;;;11.90;99.90;;;;;;5023420;28;20025;-81
2022/05/20 02:37:29;;;;;;;14.75;12.48;;;11.90;99.90;;;;;;5020294;28;20021;-80
2022/05/20 02:39:56;;;;;;;18.27;14.05;;;11.80;99.90;;;;;;5019604;28;20052;-81
2022/05/20 02:42:23;;;;;;;15.65;13.43;;;11.80;99.90;;;;;;5010571;28;20048;-81
2022/05/20 02:44:50;;;;;;;13.45;11.88;;;11.80;99.90;;;;;;5005330;28;20389;-81
2022/05/20 02:47:17;;;;;;;18.27;14.32;;;11.80;99.90;;;;;;5007339;28;20022;-81
2022/05/20 02:49:46;;;;;;;13.07;10.88;;;11.80;99.90;;;;;;5005221;28;20034;-81
2022/05/20 02:52:15;;;;;;;14.35;12.57;;;11.80;99.90;;;;;;5009243;28;20033;-81
2022/05/20 02:54:44;;;;;;;16.27;13.60;;;11.70;99.90;;;;;;5021939;28;20393;-81
2022/05/20 02:57:14;;;;;;;16.73;13.15;;;11.70;99.90;;;;;;5005780;28;20046;-81
2022/05/20 03:05:30;;;;;;;12.75;9.18;;;11.60;99.90;;;;;;5022532;28;20037;-81
2022/05/20 03:08:03;;;;;;;13.10;11.52;;;11.60;99.90;;;;;;5020150;28;20048;-80
2022/05/20 03:10:32;;;;;;;15.75;12.98;;;11.50;99.90;;;;;;5021618;28;20033;-81
2022/05/20 03:13:08;;;;;;;15.95;13.75;;;11.50;99.90;;;;;;5047354;28;20063;-80
2022/05/20 03:15:39;;;;;;;16.52;12.70;;;11.50;99.90;;;;;;5049563;28;20033;-81
2022/05/20 03:18:30;;;;;;;15.57;12.93;;;11.50;99.90;;;;;;5028992;28;20032;-80
2022/05/20 03:21:16;;;;;;;18.33;13.15;;;11.50;99.90;;;;;;5053404;28;20383;-81
2022/05/20 03:23:43;;;;;;;19.05;14.25;;;11.50;99.90;;;;;;5052951;28;20032;-81
2022/05/20 03:26:21;;;;;;;13.70;12.15;;;11.50;99.90;;;;;;5032909;28;20045;-80
2022/05/20 03:28:48;;;;;;;13.30;11.57;;;11.40;99.90;;;;;;5070211;28;20024;-80
2022/05/20 03:31:15;;;;;;;16.05;12.85;;;11.40;99.90;;;;;;5051292;28;20032;-81
2022/05/20 03:33:46;;;;;;;18.17;13.32;;;11.40;99.90;;;;;;5070487;28;20348;-81
2022/05/20 03:36:15;;;;;;;14.98;12.38;;;11.40;99.90;;;;;;5019200;28;20046;-80
2022/05/20 03:38:44;;;;;;;16.17;12.50;;;11.30;99.90;;;;;;5053414;28;20488;-80
2022/05/20 03:41:18;;;;;;;16.98;13.70;;;11.30;99.90;;;;;;5050013;28;20028;-80
2022/05/20 03:43:47;;;;;;;14.80;12.80;;;11.30;99.90;;;;;;5051897;28;20028;-81
2022/05/20 03:46:13;;;;;;;16.95;14.30;;;11.30;99.90;;;;;;5046023;28;20040;-81
2022/05/20 03:48:40;;;;;;;16.23;14.35;;;11.30;99.90;;;;;;5052508;28;21172;-82
2022/05/20 03:51:12;;;;;;;16.08;12.40;;;11.30;99.90;;;;;;5018990;28;20029;-81
2022/05/20 03:53:39;;;;;;;16.27;13.33;;;11.30;99.90;;;;;;5054907;28;20025;-81
2022/05/20 03:56:06;;;;;;;15.18;12.27;;;11.30;99.90;;;;;;5018081;28;20298;-81
2022/05/20 03:58:33;;;;;;;15.52;12.75;;;11.30;99.90;;;;;;5059806;28;20372;-81
2022/05/20 04:03:46;;;;;;;14.93;11.90;;;11.30;99.90;;;;;;5022579;28;20052;-81
2022/05/20 04:06:13;;;;;;;15.60;12.57;;;11.40;99.90;;;;;;5046571;28;20040;-80
2022/05/20 04:08:40;;;;;;;15.35;11.95;;;11.40;99.90;;;;;;5017605;28;20040;-80
2022/05/20 04:11:11;;;;;;;17.58;12.68;;;11.40;99.90;;;;;;5031316;28;20047;-81
2022/05/20 04:13:39;;;;;;;15.30;13.50;;;11.40;99.90;;;;;;5052198;28;20036;-81
2022/05/20 04:16:07;;;;;;;15.57;12.20;;;11.50;99.90;;;;;;5032562;28;20039;-80
2022/05/20 04:18:33;;;;;;;18.45;14.18;;;11.50;99.90;;;;;;5036161;28;20043;-80
2022/05/20 04:21:00;;;;;;;18.58;15.23;;;11.50;99.90;;;;;;4997536;28;20352;-81
2022/05/20 04:23:26;;;;;;;17.73;14.90;;;11.60;99.90;;;;;;5018275;28;20051;-81
2022/05/20 04:25:52;;;;;;;15.38;13.27;;;11.70;99.90;;;;;;5035573;28;20016;-81
2022/05/20 04:28:19;;;;;;;15.73;13.02;;;11.70;99.90;;;;;;5048170;28;22737;-81
2022/05/20 04:30:46;;;;;;;16.73;14.18;;;11.80;99.90;;;;;;5048823;28;20043;-81
2022/05/20 04:33:13;;;;;;;15.38;13.25;;;11.90;99.90;;;;;;5051575;28;20387;-81
2022/05/20 04:35:39;;;;;;;15.65;12.35;;;12.00;99.90;;;;;;5051255;28;20031;-81
2022/05/20 04:38:06;;;;;;;14.18;12.68;;;12.00;99.90;;;;;;5051314;28;20024;-80
2022/05/20 04:40:32;;;;;;;17.67;13.82;;;12.10;99.90;;;;;;5038103;28;20495;-81
2022/05/20 04:48:31;;;;;;;15.05;12.40;;;12.30;99.90;;;;;;5052792;28;20027;-81
2022/05/20 04:51:00;;;;;;;15.35;13.55;;;12.30;99.90;;;;;;5049029;28;20380;-81
2022/05/20 04:56:12;;;;;;;19.02;13.70;;;12.40;99.90;;;;;;5019675;28;21986;-80
2022/05/20 04:58:38;;;;;;;18.13;14.68;;;12.50;99.90;;;;;;5054714;28;20029;-80
2022/05/20 05:01:05;;;;;;;18.17;14.88;;;12.50;99.90;;;;;;5067599;28;20055;-81
2022/05/20 05:03:31;;;;;;;23.00;17.38;;;12.60;99.90;;;;;;5019748;28;20480;-81
2022/05/20 05:05:59;;;;;;;17.63;14.95;;;12.70;99.90;;;;;;5032590;28;20040;-81
2022/05/20 05:08:26;;;;;;;20.00;16.58;;;12.80;99.90;;;;;;5037495;28;20032;-81
2022/05/20 05:10:52;;;;;;;27.30;19.83;;;12.90;99.90;;;;;;5019502;28;20032;-81
2022/05/20 05:13:18;;;;;;;29.63;19.50;;;12.90;99.90;;;;;;5049262;28;20043;-81
2022/05/20 05:15:45;;;;;;;23.35;18.83;;;13.00;99.90;;;;;;5002683;28;20041;-80
2022/05/20 05:18:16;;;;;;;17.90;14.65;;;13.10;99.90;;;;;;5017259;28;20048;-81
2022/05/20 05:20:50;;;;;;;28.50;20.33;;;13.20;99.90;;;;;;5049572;28;20028;-81
2022/05/20 05:23:18;;;;;;;29.70;19.83;;;13.30;99.90;;;;;;5011446;28;20051;-81
2022/05/20 05:25:45;;;;;;;47.53;22.90;;;13.30;99.90;;;;;;5036066;28;20033;-81
2022/05/20 05:28:13;;;;;;;34.33;23.65;;;13.40;99.90;;;;;;5049603;28;20025;-81
2022/05/20 05:30:43;;;;;;;44.25;22.52;;;13.40;99.90;;;;;;5063440;28;20036;-82
2022/05/20 05:33:10;;;;;;;32.47;21.75;;;13.40;99.90;;;;;;5016736;28;20040;-81
2022/05/20 05:35:36;;;;;;;29.10;19.63;;;13.60;99.90;;;;;;5015432;28;20025;-80
2022/05/20 05:38:03;;;;;;;31.95;21.45;;;13.70;99.90;;;;;;5061758;28;20029;-81
2022/05/20 05:40:32;;;;;;;24.27;16.35;;;13.80;99.90;;;;;;5035531;28;20028;-81
2022/05/20 05:43:03;;;;;;;31.02;20.17;;;14.00;99.90;;;;;;5068648;28;20029;-82
2022/05/20 05:45:34;;;;;;;22.98;16.77;;;14.10;99.90;;;;;;5049718;28;20376;-82
2022/05/20 05:48:06;;;;;;;22.85;15.98;;;14.20;99.90;;;;;;5046780;28;20029;-81
2022/05/20 05:50:37;;;;;;;23.65;18.05;;;14.30;99.90;;;;;;5057334;28;20036;-80
2022/05/20 05:53:12;;;;;;;21.10;17.67;;;14.50;99.90;;;;;;5068622;28;20032;-82
2022/05/20 05:55:47;;;;;;;20.50;16.38;;;14.80;99.90;;;;;;5027027;28;20029;-85
2022/05/20 05:58:17;;;;;;;19.73;16.80;;;15.00;99.90;;;;;;5006726;28;20053;-81
2022/05/20 06:00:56;;;;;;;17.80;15.25;;;15.20;99.90;;;;;;5006122;28;20049;-81
2022/05/20 06:03:27;;;;;;;21.38;17.48;;;15.40;99.90;;;;;;5010266;28;20500;-82
2022/05/20 06:05:57;;;;;;;20.42;17.25;;;15.50;99.90;;;;;;5007784;28;20033;-82
2022/05/20 06:11:43;;;;;;;15.05;12.20;;;16.10;99.90;;;;;;5022956;28;20065;-81
2022/05/20 06:14:11;;;;;;;12.90;10.23;;;16.50;99.90;;;;;;5004250;28;20042;-82
2022/05/20 06:16:49;;;;;;;12.93;11.50;;;16.90;99.90;;;;;;4988680;28;20488;-83
2022/05/20 06:19:21;;;;;;;13.80;11.50;;;17.10;99.90;;;;;;5009312;28;20053;-81
2022/05/20 06:21:55;;;;;;;12.10;10.77;;;17.20;99.90;;;;;;5016417;28;20068;-81
2022/05/20 06:24:33;;;;;;;13.48;11.40;;;17.30;99.90;;;;;;5023171;28;20048;-84
2022/05/20 06:27:00;;;;;;;13.40;10.13;;;17.30;99.90;;;;;;5036923;28;20045;-84
2022/05/20 06:29:33;;;;;;;11.07;9.95;;;17.40;99.90;;;;;;5042211;28;20167;-84
2022/05/20 06:32:07;;;;;;;15.07;11.15;;;17.40;99.90;;;;;;5062802;28;20044;-83
2022/05/20 06:40:51;;;;;;;16.25;12.77;;;17.80;99.90;;;;;;5040576;28;20052;-84
2022/05/20 06:43:20;;;;;;;15.60;11.20;;;18.00;99.90;;;;;;5045959;28;20040;-79
2022/05/20 06:45:50;;;;;;;18.13;11.82;;;18.20;99.90;;;;;;5046247;28;20031;-79
2022/05/20 06:48:17;;;;;;;17.33;11.57;;;18.40;99.90;;;;;;5045405;28;20396;-80
2022/05/20 06:50:44;;;;;;;12.55;10.18;;;18.50;99.90;;;;;;5032100;28;20039;-79
2022/05/20 06:53:11;;;;;;;16.17;11.52;;;18.50;99.90;;;;;;5018055;28;20044;-83
2022/05/20 06:55:37;;;;;;;13.48;10.15;;;18.50;99.90;;;;;;5050569;28;20056;-81
2022/05/20 06:58:04;;;;;;;10.60;8.48;;;18.50;99.90;;;;;;5028548;28;20052;-84
2022/05/20 07:00:31;;;;;;;12.15;8.80;;;18.40;99.90;;;;;;5031167;28;20032;-84
2022/05/20 07:02:57;;;;;;;14.35;9.77;;;18.50;99.90;;;;;;5030662;28;20488;-82
2022/05/20 07:05:24;;;;;;;12.23;8.55;;;18.50;99.90;;;;;;5031214;28;20028;-86
2022/05/20 07:07:51;;;;;;;9.63;8.02;;;18.50;99.90;;;;;;5048490;28;20612;-81
2022/05/20 07:10:17;;;;;;;13.02;8.73;;;18.60;99.90;;;;;;5027011;28;20040;-81
2022/05/20 07:12:44;;;;;;;15.20;10.48;;;18.60;99.90;;;;;;5004863;28;20075;-81
2022/05/20 07:15:11;;;;;;;14.18;10.00;;;18.60;99.90;;;;;;5052353;28;20044;-81
2022/05/20 07:17:37;;;;;;;11.35;8.85;;;18.60;99.90;;;;;;5025454;28;20044;-81
2022/05/20 07:20:05;;;;;;;9.75;8.23;;;18.70;99.90;;;;;;5031019;28;20037;-81
2022/05/20 07:22:32;;;;;;;12.45;8.98;;;18.80;99.90;;;;;;5061432;28;20040;-80
2022/05/20 07:24:59;;;;;;;13.02;8.25;;;18.90;99.90;;;;;;5066307;28;20384;-81
2022/05/20 07:27:25;;;;;;;8.70;7.22;;;19.10;99.90;;;;;;5023927;28;20375;-80
2022/05/20 07:29:52;;;;;;;11.30;8.60;;;19.20;99.90;;;;;;5027573;28;20044;-80
2022/05/20 07:32:18;;;;;;;14.20;10.68;;;19.30;99.90;;;;;;5015202;28;20044;-80
2022/05/20 07:34:44;;;;;;;10.75;8.02;;;19.30;99.90;;;;;;5043858;28;20055;-81
2022/05/20 07:37:11;;;;;;;13.20;10.15;;;19.40;99.90;;;;;;5043726;28;20035;-80
2022/05/20 07:39:37;;;;;;;13.07;10.95;;;19.50;99.90;;;;;;5029125;28;20047;-80
2022/05/20 07:42:04;;;;;;;12.07;9.10;;;19.70;99.90;;;;;;5013530;28;20480;-80
2022/05/20 07:48:23;;;;;;;12.45;9.70;;;19.90;99.90;;;;;;5019740;28;20030;-79
2022/05/20 07:51:19;;;;;;;12.80;9.55;;;20.00;99.90;;;;;;4991188;28;20538;-80
2022/05/20 07:53:58;;;;;;;11.60;9.18;;;20.10;99.90;;;;;;5017560;28;20547;-80
2022/05/20 07:56:35;;;;;;;10.35;9.27;;;20.10;99.90;;;;;;5015156;28;20049;-80
2022/05/20 07:59:10;;;;;;;11.65;8.68;;;20.20;99.90;;;;;;5006026;28;20052;-80
2022/05/20 08:01:50;;;;;;;10.50;8.00;;;20.40;99.90;;;;;;5022787;28;20056;-79
2022/05/20 08:04:53;;;;;;;10.38;6.82;;;20.30;99.90;;;;;;4982453;28;20525;-79
2022/05/20 08:07:46;;;;;;;9.43;7.47;;;20.10;99.90;;;;;;5026398;28;20544;-79
2022/05/20 08:10:21;;;;;;;;;;;20.00;99.90;;;;;;5007320;28;20033;-80
2022/05/20 08:14:05;;;;;;;7.38;5.80;;;20.00;99.90;;;;;;5005941;28;20442;-84
2022/05/20 08:20:07;;;;;;;7.97;5.27;;;20.70;99.90;;;;;;4946647;28;20090;-82
2022/05/20 08:22:43;;;;;;;7.20;4.20;;;20.90;99.90;;;;;;5038257;28;20891;-83
2022/05/20 08:25:42;;;;;;;7.60;6.03;;;21.20;99.90;;;;;;5034164;28;20353;-87
2022/05/20 08:28:30;;;;;;;6.85;5.65;;;21.50;99.90;;;;;;5030966;28;20476;-85
2022/05/20 08:31:51;;;;;;;8.18;4.88;;;21.50;99.90;;;;;;5011460;28;20037;-85
2022/05/20 08:34:40;;;;;;;6.72;4.20;;;21.60;99.90;;;;;;4990935;28;20409;-81
2022/05/20 08:37:21;;;;;;;7.10;4.22;;;21.70;99.90;;;;;;5035544;28;20398;-79
2022/05/20 08:40:00;;;;;;;6.65;4.22;;;21.80;99.90;;;;;;4989789;28;20052;-85
2022/05/20 08:42:32;;;;;;;7.38;4.20;;;21.80;99.90;;;;;;5006334;28;20044;-82
2022/05/20 08:45:01;;;;;;;7.70;5.03;;;21.90;99.90;;;;;;5011026;28;20038;-81
2022/05/20 08:47:47;;;;;;;5.33;4.20;;;22.00;99.90;;;;;;5047132;28;20511;-83
2022/05/20 08:50:50;;;;;;;6.55;4.97;;;22.10;99.90;;;;;;5046925;28;20279;-82
2022/05/20 08:53:27;;;;;;;6.45;4.13;;;22.20;99.90;;;;;;5066554;28;20032;-81
2022/05/20 08:56:10;;;;;;;4.55;3.00;;;22.30;99.90;;;;;;5029734;28;20063;-82
2022/05/20 08:59:01;;;;;;;5.95;3.50;;;22.40;99.90;;;;;;5051715;28;20055;-81
2022/05/20 09:01:40;;;;;;;6.25;4.20;;;22.60;99.70;;;;;;5049457;28;20040;-80
2022/05/20 09:04:16;;;;;;;5.15;3.15;;;22.80;99.20;;;;;;5047131;28;20039;-82
2022/05/20 09:07:05;;;;;;;12.68;10.23;;;23.00;98.80;;;;;;5029068;28;20037;-81
2022/05/20 09:09:48;;;;;;;7.07;3.60;;;23.10;98.10;;;;;;5030246;28;20028;-82
2022/05/20 09:12:47;;;;;;;7.70;4.38;;;23.20;96.70;;;;;;5064924;28;20060;-82
2022/05/20 09:18:11;;;;;;;6.13;3.47;;;23.30;95.70;;;;;;5045984;28;20036;-83
2022/05/20 09:20:52;;;;;;;6.05;2.95;;;23.20;95.40;;;;;;5047213;28;20037;-81
2022/05/20 09:23:21;;;;;;;5.88;2.80;;;23.30;95.40;;;;;;5049442;28;20395;-81
2022/05/20 09:26:05;;;;;;;5.45;2.42;;;23.30;94.90;;;;;;5033715;28;20028;-82
2022/05/20 09:28:47;;;;;;;4.78;2.25;;;23.50;95.00;;;;;;5031342;28;20029;-81
2022/05/20 09:31:28;;;;;;;5.88;4.25;;;23.70;94.40;;;;;;5048011;28;20013;-80
2022/05/20 09:34:14;;;;;;;6.25;3.35;;;23.70;93.60;;;;;;5035079;28;20040;-81
2022/05/20 09:37:02;;;;;;;8.32;4.10;;;23.80;93.00;;;;;;5047192;28;20031;-81
2022/05/20 09:39:41;;;;;;;9.30;5.63;;;23.80;92.80;;;;;;5028579;28;20459;-83
2022/05/20 09:46:34;;;;;;;5.75;4.57;;;23.90;92.10;;;;;;4980907;28;21308;-84
2022/05/20 09:50:02;;;;;;;6.63;5.30;;;23.70;92.80;;;;;;5009693;28;20036;-83
2022/05/20 09:53:06;;;;;;;5.78;3.60;;;23.50;93.10;;;;;;5003812;28;20030;-79
2022/05/20 09:56:12;;;;;;;6.35;4.38;;;23.60;93.70;;;;;;5015369;28;20025;-81
2022/05/20 09:58:42;;;;;;;9.25;6.65;;;23.70;93.10;;;;;;5032542;28;20024;-80
2022/05/20 10:01:16;;;;;;;7.03;4.28;;;23.90;93.20;;;;;;5049882;28;20257;-84
2022/05/20 10:03:48;;;;;;;7.28;4.32;;;24.00;93.30;;;;;;5042888;28;20037;-81
2022/05/20 10:06:37;;;;;;;7.05;5.57;;;24.10;93.00;;;;;;5063857;28;20476;-81
2022/05/20 10:09:27;;;;;;;8.70;4.15;;;24.20;92.00;;;;;;5067252;28;20017;-81
2022/05/20 10:12:09;;;;;;;8.00;4.40;;;24.20;91.10;;;;;;5063177;28;20028;-82
2022/05/20 10:14:57;;;;;;;5.65;3.83;;;24.20;90.80;;;;;;5036131;28;20056;-80
2022/05/20 10:17:44;;;;;;;13.13;7.50;;;24.40;90.80;;;;;;4995301;28;20060;-78
2022/05/20 10:20:52;;;;;;;13.85;11.02;;;24.60;90.80;;;;;;5052078;28;20020;-79
2022/05/20 10:24:11;;;;;;;7.97;6.35;;;24.50;90.30;;;;;;5047473;28;20412;-79
2022/05/20 10:26:56;;;;;;;6.80;5.07;;;24.40;90.20;;;;;;4966071;28;20037;-81
2022/05/20 10:37:05;;;;;;;7.07;4.13;;;24.20;90.00;;;;;;5037182;28;20042;-87
2022/05/20 10:40:01;;;;;;;5.93;4.38;;;24.10;90.30;;;;;;4982904;28;20037;-83
2022/05/20 10:43:24;;;;;;;7.38;4.30;;;24.40;89.70;;;;;;5028084;28;20033;-85
2022/05/20 10:49:56;;;;;;;8.55;5.18;;;25.10;89.20;;;;;;4995418;28;20384;-86
2022/05/20 10:52:50;;;;;;;7.32;3.65;;;25.50;87.70;;;;;;4993885;28;20033;-86
2022/05/20 10:55:53;;;;;;;7.18;3.92;;;25.80;87.10;;;;;;5026897;28;20052;-85
2022/05/20 10:58:45;;;;;;;6.18;3.38;;;26.10;86.40;;;;;;4953680;28;20029;-87
2022/05/20 11:01:34;;;;;;;8.30;5.70;;;26.50;83.90;;;;;;5003732;28;20056;-86
2022/05/20 11:04:36;;;;;;;6.18;4.65;;;26.60;81.90;;;;;;5045095;28;20040;-84
2022/05/20 11:07:35;;;;;;;6.72;4.18;;;26.40;80.50;;;;;;5058862;28;20036;-86
2022/05/20 11:10:44;;;;;;;3.90;3.10;;;26.30;79.60;;;;;;5045868;28;20066;-91
2022/05/20 11:13:25;;;;;;;6.53;4.75;;;26.00;80.10;;;;;;5047993;28;20067;-85
2022/05/20 11:16:08;;;;;;;6.95;2.95;;;25.90;78.30;;;;;;5047016;28;20043;-92
2022/05/20 11:18:46;;;;;;;6.03;3.28;;;25.80;78.80;;;;;;5030300;28;20047;-90
2022/05/20 11:21:47;;;;;;;3.70;2.22;;;25.70;77.80;;;;;;5047307;28;20127;-89
2022/05/20 11:24:37;;;;;;;6.32;4.32;;;25.60;77.80;;;;;;5043821;28;20051;-88
2022/05/20 11:27:26;;;;;;;6.80;3.92;;;25.40;77.20;;;;;;5035639;28;20076;-87
2022/05/20 11:30:17;;;;;;;3.53;3.08;;;25.20;77.90;;;;;;5007935;28;20075;-86
2022/05/20 11:33:06;;;;;;;7.72;4.90;;;25.20;79.20;;;;;;5036374;28;20025;-83
2022/05/20 11:36:12;;;;;;;6.22;4.57;;;25.40;79.30;;;;;;5047484;28;20032;-88
2022/05/20 11:38:48;;;;;;;11.32;9.82;;;25.60;80.10;;;;;;5030539;28;20029;-83
2022/05/20 11:41:25;;;;;;;8.63;6.05;;;25.80;79.70;;;;;;5047589;28;20044;-80
2022/05/20 11:44:00;;;;;;;8.05;5.47;;;25.80;78.90;;;;;;5064636;28;20052;-83
2022/05/20 11:46:47;;;;;;;9.43;6.20;;;25.80;78.50;;;;;;5061963;28;20391;-81
2022/05/20 11:49:56;;;;;;;8.40;5.00;;;25.70;79.20;;;;;;5049504;28;20032;-90
2022/05/20 11:52:43;;;;;;;10.18;6.10;;;25.60;80.10;;;;;;5033191;28;20033;-85
2022/05/20 11:56:00;;;;;;;7.60;6.57;;;25.60;79.60;;;;;;5047478;28;20032;-84
2022/05/20 11:58:42;;;;;;;12.07;7.75;;;25.20;79.60;;;;;;5023140;28;20041;-88
2022/05/20 12:01:24;;;;;;;7.60;5.82;;;24.70;80.70;;;;;;4990233;28;20405;-79
2022/05/20 12:07:39;;;;;;;8.82;6.68;;;24.20;83.40;;;;;;4987782;28;20710;-84
2022/05/20 12:10:45;;;;;;;9.38;8.18;;;23.70;84.10;;;;;;4979939;28;20050;-86
2022/05/20 12:13:56;;;;;;;7.38;6.47;;;23.50;85.00;;;;;;4988153;28;20044;-83
2022/05/20 12:16:54;;;;;;;10.07;8.23;;;23.30;86.50;;;;;;5007154;28;20072;-86
2022/05/20 12:26:29;;;;;;;7.97;6.13;;;23.00;89.50;;;;;;5005004;28;20284;-83
2022/05/20 12:29:52;;;;;;;6.53;4.88;;;22.90;90.20;;;;;;5019707;28;20044;-87
2022/05/20 12:33:30;;;;;;;8.77;6.38;;;22.70;90.70;;;;;;4997426;28;20057;-86
2022/05/20 12:36:32;;;;;;;11.85;9.05;;;22.50;91.20;;;;;;4998234;28;20478;-84
2022/05/20 12:39:23;;;;;;;10.18;7.32;;;22.30;91.60;;;;;;4968975;28;20390;-84
2022/05/20 12:41:49;;;;;;;9.57;7.47;;;22.20;92.00;;;;;;4996742;28;20405;-79
2022/05/20 12:44:19;;;;;;;10.63;8.88;;;22.10;92.70;;;;;;4977907;28;20136;-82
2022/05/20 12:47:11;;;;;;;9.13;7.68;;;21.90;93.40;;;;;;4965084;28;20030;-81
2022/05/20 12:49:45;;;;;;;10.50;8.13;;;21.70;94.30;;;;;;4950490;28;20048;-82
2022/05/20 12:52:18;;;;;;;13.35;8.20;;;21.50;95.60;;;;;;4995615;28;20459;-79
2022/05/20 12:54:46;;;;;;;;;;;21.20;96.80;;;;;;4997513;28;20037;-79
2022/05/20 12:57:18;;;;;;;11.20;8.10;;;21.00;97.30;;;;;;4968783;28;20345;-79
2022/05/20 12:59:56;;;;;;;10.55;9.48;;;20.70;98.70;;;;;;4967208;28;20034;-79
2022/05/20 13:02:39;;;;;;;9.30;8.13;;;20.30;99.90;;;;;;5000029;28;20049;-80
2022/05/20 13:05:39;;;;;;;9.60;7.97;;;20.00;99.90;;;;;;4979600;28;20140;-80
2022/05/20 13:08:15;;;;;;;13.38;9.68;;;19.80;99.90;;;;;;5008608;28;20037;-79
2022/05/20 13:10:42;;;;;;;13.02;11.50;;;19.60;99.90;;;;;;5035456;28;20068;-78
2022/05/20 13:13:10;;;;;;;16.90;10.95;;;19.40;99.90;;;;;;5042833;28;20389;-77
2022/05/20 13:15:48;;;;;;;10.88;8.02;;;19.40;99.90;;;;;;5043771;28;20045;-85
2022/05/20 13:18:21;;;;;;;15.60;12.27;;;19.30;99.90;;;;;;5023485;28;20037;-85
2022/05/20 13:20:54;;;;;;;13.18;11.43;;;19.20;99.90;;;;;;5026505;28;20061;-85
2022/05/20 13:23:37;;;;;;;14.90;12.65;;;19.00;99.90;;;;;;5024659;28;20040;-82
2022/05/20 13:26:05;;;;;;;20.00;15.88;;;19.00;99.90;;;;;;5049585;28;20021;-83
2022/05/20 13:28:37;;;;;;;19.38;15.43;;;19.00;99.90;;;;;;5045147;28;20021;-84
2022/05/20 13:31:06;;;;;;;18.38;15.68;;;19.20;99.90;;;;;;5031136;28;20480;-84
2022/05/20 13:33:40;;;;;;;20.63;17.50;;;19.40;99.90;;;;;;5030512;28;20029;-85
2022/05/20 13:36:12;;;;;;;21.23;18.80;;;19.60;99.90;;;;;;5038217;28;20028;-85
2022/05/20 13:38:45;;;;;;;18.88;15.48;;;19.70;99.90;;;;;;5023669;28;20360;-85
2022/05/20 13:41:11;;;;;;;22.52;18.40;;;19.80;99.90;;;;;;5014054;28;20040;-84
2022/05/20 13:43:40;;;;;;;19.10;15.02;;;19.90;99.90;;;;;;5012907;28;20041;-84
2022/05/20 13:49:15;;;;;;;23.48;20.33;;;20.00;99.90;;;;;;5031535;28;20499;-85
2022/05/20 13:52:01;;;;;;;23.00;18.50;;;20.10;99.90;;;;;;5014231;28;20025;-85
2022/05/20 13:54:42;;;;;;;18.85;16.10;;;20.20;99.90;;;;;;5020289;28;20350;-84
2022/05/20 13:57:21;;;;;;;19.60;16.20;;;20.20;99.90;;;;;;5036514;28;20067;-86
2022/05/20 13:59:50;;;;;;;20.75;17.25;;;20.10;99.90;;;;;;5028077;28;20025;-79
2022/05/20 14:02:18;;;;;;;21.73;17.80;;;20.00;99.90;;;;;;5044096;28;20044;-82
2022/05/20 14:04:48;;;;;;;22.33;18.67;;;19.80;99.90;;;;;;5029051;28;20025;-81
2022/05/20 14:07:27;;;;;;;23.73;19.77;;;19.70;99.90;;;;;;5028183;28;21509;-82
2022/05/20 14:09:58;;;;;;;25.70;20.52;;;19.60;99.90;;;;;;5021833;28;20029;-82
2022/05/20 14:12:28;;;;;;;21.27;18.98;;;19.60;99.90;;;;;;5052016;28;20052;-80
2022/05/20 14:15:02;;;;;;;28.42;20.45;;;19.40;99.90;;;;;;5034145;28;20045;-78
2022/05/20 14:17:29;;;;;;;27.83;19.77;;;19.30;99.90;;;;;;5016870;28;20029;-80
2022/05/20 14:20:01;;;;;;;19.23;16.08;;;19.30;99.90;;;;;;5002474;28;20039;-83
2022/05/20 14:22:33;;;;;;;28.45;23.08;;;19.20;99.90;;;;;;5023376;28;21015;-83
2022/05/20 14:25:07;;;;;;;24.88;20.48;;;19.20;99.90;;;;;;5018277;28;20025;-84
2022/05/20 14:27:45;;;;;;;26.90;19.77;;;19.20;99.90;;;;;;5030415;28;20576;-86
2022/05/20 14:30:35;;;;;;;23.50;20.10;;;19.20;99.90;;;;;;5041860;28;20090;-84